Cobbs Creek, Virginia
Current Conditions -  °F | °C
As of 5:55 AM on Friday 19 Dec 2014 (Local Time) from KW75 Reporting Station
Overcast Overcast  
Wind Chill: 30°   Ceiling: 9000
Heat Index: 35°   Visibility: 10mi
Dew Point: 25°   Wind: 6mph
Humidity: 67%   Direction: 340°NNW
Pressure: 30.11"   Gusts: NA
Location:  37.51°N, 76.4°W
Report Text: KW75 191055Z AUTO 34005KT 10SM OVC090 02/M04 A3011 RMK AO1 T00151040
Loading
Personal Weather Stations






























Interactive Weather Map New forecast layout! Learn more

10-Day Weather Forecast

Advertisements
Track Severe Weather on mobile